Orbital elements of FENGYUN 1C DEB
| Launched | 9 May 1999 |
| Flight ended | – |
| Launch site | Taiyuan Space Center, PRC |
| Owner | People's Republic of China |
| NORAD ID | 35245 |
| Date fetched |
Epoch osculation |
Inc. [°] |
Ecc. | RA asc node [hr] |
Arg Peri. [°] |
Mean anom [°] |
Mean motion [rev/day] |
Abs. mag |
| Date fetched |
Epoch osculation |
Inc. [°] |
Ecc. | RA asc node [hr] |
Arg Peri. [°] |
Mean anom [°] |
Mean motion [rev/day] |
Abs. mag |
| 2026 May 04 17:57 | 2026 Apr 30 12:55:02 | 99.0768 | 0.00580 | 14.2099 | 238.0125 | 137.6270 | 14.14011 | – |
| 2026 May 03 17:57 | 2026 Apr 30 12:55:02 | 99.0768 | 0.00580 | 14.2099 | 238.0125 | 137.6270 | 14.14011 | – |
| 2026 May 02 17:57 | 2026 Apr 30 12:55:02 | 99.0768 | 0.00580 | 14.2099 | 238.0125 | 137.6270 | 14.14011 | – |
| 2026 May 01 17:56 | 2026 Apr 30 12:55:02 | 99.0768 | 0.00580 | 14.2099 | 238.0125 | 137.6270 | 14.14011 | – |
| 2026 Apr 30 17:56 | 2026 Apr 30 12:55:02 | 99.0768 | 0.00580 | 14.2099 | 238.0125 | 137.6270 | 14.14011 | – |
| 2026 Apr 29 17:57 | 2026 Apr 21 11:32:05 | 99.0757 | 0.00570 | 13.5967 | 263.8683 | 137.6270 | 14.14011 | – |
| 2026 Apr 28 17:56 | 2026 Apr 21 11:32:05 | 99.0757 | 0.00570 | 13.5967 | 263.8683 | 137.6270 | 14.14011 | – |
| 2026 Apr 27 17:58 | 2026 Apr 21 11:32:05 | 99.0757 | 0.00570 | 13.5967 | 263.8683 | 137.6270 | 14.14011 | – |
| 2026 Apr 26 17:58 | 2026 Apr 21 11:32:05 | 99.0757 | 0.00570 | 13.5967 | 263.8683 | 137.6270 | 14.14011 | – |
| 2026 Apr 25 17:58 | 2026 Apr 21 11:32:05 | 99.0757 | 0.00570 | 13.5967 | 263.8683 | 137.6270 | 14.14011 | – |
| 2026 Apr 24 17:59 | 2026 Apr 21 11:32:05 | 99.0757 | 0.00570 | 13.5967 | 263.8683 | 137.6270 | 14.14011 | – |
| 2026 Apr 23 17:57 | 2026 Apr 19 05:15:24 | 99.0759 | 0.00568 | 13.4437 | 270.3929 | 137.6270 | 14.14011 | – |
| 2026 Apr 22 17:57 | 2026 Apr 19 05:15:24 | 99.0759 | 0.00568 | 13.4437 | 270.3929 | 137.6270 | 14.14011 | – |
| 2026 Apr 21 17:57 | 2026 Apr 19 05:15:24 | 99.0759 | 0.00568 | 13.4437 | 270.3929 | 137.6270 | 14.14011 | – |
| 2026 Apr 20 17:57 | 2026 Apr 19 05:15:24 | 99.0759 | 0.00568 | 13.4437 | 270.3929 | 137.6270 | 14.14011 | – |
| 2026 Apr 19 17:58 | 2026 Apr 19 05:15:24 | 99.0759 | 0.00568 | 13.4437 | 270.3929 | 137.6270 | 14.14011 | – |
| 2026 Apr 18 17:56 | 2026 Apr 13 04:54:24 | 99.0754 | 0.00564 | 13.0365 | 287.7961 | 137.6270 | 14.14011 | – |
| 2026 Apr 16 17:57 | 2026 Apr 13 04:54:24 | 99.0754 | 0.00564 | 13.0365 | 287.7961 | 137.6270 | 14.14011 | – |
| 2026 Apr 14 17:57 | 2026 Apr 13 04:54:24 | 99.0754 | 0.00564 | 13.0365 | 287.7961 | 137.6270 | 14.14011 | – |
| 2026 Apr 13 17:57 | 2026 Apr 13 04:54:24 | 99.0754 | 0.00564 | 13.0365 | 287.7961 | 137.6270 | 14.14011 | – |
| 2026 Apr 12 17:57 | 2026 Apr 06 04:45:47 | 99.0755 | 0.00560 | 12.5623 | 308.2439 | 137.6270 | 14.14011 | – |
| 2026 Apr 11 17:57 | 2026 Apr 06 04:45:47 | 99.0755 | 0.00560 | 12.5623 | 308.2439 | 137.6270 | 14.14011 | – |
| 2026 Apr 10 17:58 | 2026 Apr 06 04:45:47 | 99.0755 | 0.00560 | 12.5623 | 308.2439 | 137.6270 | 14.14011 | – |
| 2026 Apr 09 18:01 | 2026 Apr 06 04:45:47 | 99.0755 | 0.00560 | 12.5623 | 308.2439 | 137.6270 | 14.14011 | – |
| 2026 Apr 08 17:57 | 2026 Apr 06 04:45:47 | 99.0755 | 0.00560 | 12.5623 | 308.2439 | 137.6270 | 14.14011 | – |
| 2026 Apr 07 17:57 | 2026 Mar 29 04:50:38 | 99.0752 | 0.00560 | 12.0211 | 331.5475 | 137.6270 | 14.14011 | – |